sensor_id;sensor_type;location;lat;lon;timestamp;P1;durP1;ratioP1;P2;durP2;ratioP2
25045;SDS011;13044;49.304;12.840;2023-05-10T00:01:20;5.78;;;4.35;;
25045;SDS011;13044;49.304;12.840;2023-05-10T00:03:47;6.28;;;4.10;;
25045;SDS011;13044;49.304;12.840;2023-05-10T00:06:14;6.47;;;3.90;;
25045;SDS011;13044;49.304;12.840;2023-05-10T00:08:41;7.22;;;4.40;;
25045;SDS011;13044;49.304;12.840;2023-05-10T00:11:08;5.60;;;3.92;;
25045;SDS011;13044;49.304;12.840;2023-05-10T00:13:35;7.43;;;4.63;;
25045;SDS011;13044;49.304;12.840;2023-05-10T00:16:01;7.18;;;4.38;;
25045;SDS011;13044;49.304;12.840;2023-05-10T00:18:29;8.07;;;4.35;;
25045;SDS011;13044;49.304;12.840;2023-05-10T00:20:55;6.93;;;4.15;;
25045;SDS011;13044;49.304;12.840;2023-05-10T00:23:22;5.78;;;4.13;;
25045;SDS011;13044;49.304;12.840;2023-05-10T00:25:49;5.80;;;4.35;;
25045;SDS011;13044;49.304;12.840;2023-05-10T00:28:16;6.40;;;3.97;;
25045;SDS011;13044;49.304;12.840;2023-05-10T00:30:43;4.38;;;3.97;;
25045;SDS011;13044;49.304;12.840;2023-05-10T00:33:09;9.60;;;4.70;;
25045;SDS011;13044;49.304;12.840;2023-05-10T00:35:37;7.13;;;4.00;;
25045;SDS011;13044;49.304;12.840;2023-05-10T00:38:04;5.40;;;3.83;;
25045;SDS011;13044;49.304;12.840;2023-05-10T00:40:31;5.45;;;4.30;;
25045;SDS011;13044;49.304;12.840;2023-05-10T00:42:58;6.78;;;4.30;;
25045;SDS011;13044;49.304;12.840;2023-05-10T00:45:26;11.27;;;5.10;;
25045;SDS011;13044;49.304;12.840;2023-05-10T00:47:53;7.13;;;4.50;;
25045;SDS011;13044;49.304;12.840;2023-05-10T00:50:22;5.22;;;4.70;;
25045;SDS011;13044;49.304;12.840;2023-05-10T00:52:49;4.97;;;4.22;;
25045;SDS011;13044;49.304;12.840;2023-05-10T00:55:16;5.38;;;4.35;;
25045;SDS011;13044;49.304;12.840;2023-05-10T00:57:45;7.47;;;4.45;;
25045;SDS011;13044;49.304;12.840;2023-05-10T01:00:12;5.63;;;4.40;;
25045;SDS011;13044;49.304;12.840;2023-05-10T01:02:44;5.30;;;4.05;;
25045;SDS011;13044;49.304;12.840;2023-05-10T01:05:12;5.68;;;3.78;;
25045;SDS011;13044;49.304;12.840;2023-05-10T01:07:40;6.47;;;4.40;;
25045;SDS011;13044;49.304;12.840;2023-05-10T01:10:07;5.93;;;3.85;;
25045;SDS011;13044;49.304;12.840;2023-05-10T01:12:36;4.50;;;3.80;;
25045;SDS011;13044;49.304;12.840;2023-05-10T01:15:06;4.53;;;3.97;;
25045;SDS011;13044;49.304;12.840;2023-05-10T01:17:35;6.97;;;4.70;;
25045;SDS011;13044;49.304;12.840;2023-05-10T01:20:04;5.38;;;4.63;;
25045;SDS011;13044;49.304;12.840;2023-05-10T01:31:30;9.57;;;5.15;;
25045;SDS011;13044;49.304;12.840;2023-05-10T01:34:34;5.68;;;4.25;;
25045;SDS011;13044;49.304;12.840;2023-05-10T01:37:13;4.73;;;4.23;;
25045;SDS011;13044;49.304;12.840;2023-05-10T01:39:57;6.72;;;4.47;;
25045;SDS011;13044;49.304;12.840;2023-05-10T01:42:36;8.13;;;4.47;;
25045;SDS011;13044;49.304;12.840;2023-05-10T01:45:24;4.65;;;4.03;;
25045;SDS011;13044;49.304;12.840;2023-05-10T01:48:09;11.43;;;4.45;;
25045;SDS011;13044;49.304;12.840;2023-05-10T01:50:38;6.57;;;4.80;;
25045;SDS011;13044;49.304;12.840;2023-05-10T01:53:10;5.43;;;3.92;;
25045;SDS011;13044;49.304;12.840;2023-05-10T01:55:49;5.75;;;4.30;;
25045;SDS011;13044;49.304;12.840;2023-05-10T01:58:20;6.10;;;4.28;;
25045;SDS011;13044;49.304;12.840;2023-05-10T02:00:56;7.13;;;4.07;;
25045;SDS011;13044;49.304;12.840;2023-05-10T02:03:27;8.43;;;4.55;;
25045;SDS011;13044;49.304;12.840;2023-05-10T02:05:55;6.03;;;4.32;;
25045;SDS011;13044;49.304;12.840;2023-05-10T02:08:23;6.25;;;4.80;;
25045;SDS011;13044;49.304;12.840;2023-05-10T02:10:54;6.38;;;4.40;;
25045;SDS011;13044;49.304;12.840;2023-05-10T02:13:23;5.95;;;4.40;;
25045;SDS011;13044;49.304;12.840;2023-05-10T02:15:52;9.30;;;5.03;;
25045;SDS011;13044;49.304;12.840;2023-05-10T02:18:20;5.82;;;4.90;;
25045;SDS011;13044;49.304;12.840;2023-05-10T02:20:50;9.98;;;4.75;;
25045;SDS011;13044;49.304;12.840;2023-05-10T02:23:18;5.60;;;4.57;;
25045;SDS011;13044;49.304;12.840;2023-05-10T02:25:46;7.68;;;4.75;;
25045;SDS011;13044;49.304;12.840;2023-05-10T02:28:15;5.07;;;4.15;;
25045;SDS011;13044;49.304;12.840;2023-05-10T02:30:44;7.75;;;4.65;;
25045;SDS011;13044;49.304;12.840;2023-05-10T02:33:13;7.38;;;4.70;;
25045;SDS011;13044;49.304;12.840;2023-05-10T02:35:41;11.57;;;4.60;;
25045;SDS011;13044;49.304;12.840;2023-05-10T02:38:08;6.32;;;4.68;;
25045;SDS011;13044;49.304;12.840;2023-05-10T02:40:36;7.75;;;4.72;;
25045;SDS011;13044;49.304;12.840;2023-05-10T02:43:04;5.97;;;4.45;;
25045;SDS011;13044;49.304;12.840;2023-05-10T02:45:35;7.47;;;4.75;;
25045;SDS011;13044;49.304;12.840;2023-05-10T02:48:05;6.78;;;4.85;;
25045;SDS011;13044;49.304;12.840;2023-05-10T02:50:32;7.65;;;5.50;;
25045;SDS011;13044;49.304;12.840;2023-05-10T02:53:00;15.85;;;8.48;;
25045;SDS011;13044;49.304;12.840;2023-05-10T02:55:32;13.20;;;7.82;;
25045;SDS011;13044;49.304;12.840;2023-05-10T02:58:06;9.50;;;5.97;;
25045;SDS011;13044;49.304;12.840;2023-05-10T03:00:33;10.00;;;5.32;;
25045;SDS011;13044;49.304;12.840;2023-05-10T03:03:02;7.32;;;4.72;;
25045;SDS011;13044;49.304;12.840;2023-05-10T03:05:29;9.23;;;5.18;;
25045;SDS011;13044;49.304;12.840;2023-05-10T03:07:56;5.38;;;4.30;;
25045;SDS011;13044;49.304;12.840;2023-05-10T03:10:25;6.10;;;4.47;;
25045;SDS011;13044;49.304;12.840;2023-05-10T03:13:07;5.20;;;4.18;;
25045;SDS011;13044;49.304;12.840;2023-05-10T03:15:58;6.57;;;4.32;;
25045;SDS011;13044;49.304;12.840;2023-05-10T03:18:47;4.88;;;4.03;;
25045;SDS011;13044;49.304;12.840;2023-05-10T03:21:22;4.90;;;4.35;;
25045;SDS011;13044;49.304;12.840;2023-05-10T03:23:56;5.72;;;4.45;;
25045;SDS011;13044;49.304;12.840;2023-05-10T03:26:31;5.40;;;4.53;;
25045;SDS011;13044;49.304;12.840;2023-05-10T03:28:58;6.82;;;4.82;;
25045;SDS011;13044;49.304;12.840;2023-05-10T03:31:26;7.40;;;4.50;;
25045;SDS011;13044;49.304;12.840;2023-05-10T03:33:53;6.15;;;4.32;;
25045;SDS011;13044;49.304;12.840;2023-05-10T03:36:20;6.93;;;5.10;;
25045;SDS011;13044;49.304;12.840;2023-05-10T03:38:47;4.95;;;4.30;;
25045;SDS011;13044;49.304;12.840;2023-05-10T03:41:14;5.43;;;3.90;;
25045;SDS011;13044;49.304;12.840;2023-05-10T03:43:41;6.03;;;4.55;;
25045;SDS011;13044;49.304;12.840;2023-05-10T03:46:08;8.20;;;4.80;;
25045;SDS011;13044;49.304;12.840;2023-05-10T03:48:34;6.20;;;4.95;;
25045;SDS011;13044;49.304;12.840;2023-05-10T03:51:01;7.32;;;4.85;;
25045;SDS011;13044;49.304;12.840;2023-05-10T03:53:28;5.55;;;4.90;;
25045;SDS011;13044;49.304;12.840;2023-05-10T03:55:55;5.90;;;4.55;;
25045;SDS011;13044;49.304;12.840;2023-05-10T03:58:22;7.57;;;4.93;;
25045;SDS011;13044;49.304;12.840;2023-05-10T04:00:49;7.47;;;4.70;;
25045;SDS011;13044;49.304;12.840;2023-05-10T04:03:17;6.43;;;4.80;;
25045;SDS011;13044;49.304;12.840;2023-05-10T04:05:44;6.70;;;4.43;;
25045;SDS011;13044;49.304;12.840;2023-05-10T04:08:11;8.20;;;5.20;;
25045;SDS011;13044;49.304;12.840;2023-05-10T04:10:38;13.15;;;4.40;;
25045;SDS011;13044;49.304;12.840;2023-05-10T04:13:05;6.63;;;5.05;;
25045;SDS011;13044;49.304;12.840;2023-05-10T04:15:32;9.30;;;5.10;;
25045;SDS011;13044;49.304;12.840;2023-05-10T04:17:59;6.25;;;4.90;;
25045;SDS011;13044;49.304;12.840;2023-05-10T04:20:26;8.27;;;4.72;;
25045;SDS011;13044;49.304;12.840;2023-05-10T04:22:53;5.55;;;4.95;;
25045;SDS011;13044;49.304;12.840;2023-05-10T04:25:20;8.73;;;4.30;;
25045;SDS011;13044;49.304;12.840;2023-05-10T04:27:47;6.40;;;4.65;;
25045;SDS011;13044;49.304;12.840;2023-05-10T04:30:14;7.10;;;4.75;;
25045;SDS011;13044;49.304;12.840;2023-05-10T04:32:41;5.45;;;4.80;;
25045;SDS011;13044;49.304;12.840;2023-05-10T04:35:08;7.88;;;4.70;;
25045;SDS011;13044;49.304;12.840;2023-05-10T04:37:36;7.20;;;5.10;;
25045;SDS011;13044;49.304;12.840;2023-05-10T04:40:03;6.72;;;5.18;;
25045;SDS011;13044;49.304;12.840;2023-05-10T04:42:32;7.05;;;4.97;;
25045;SDS011;13044;49.304;12.840;2023-05-10T04:44:59;7.93;;;4.60;;
25045;SDS011;13044;49.304;12.840;2023-05-10T04:47:25;7.18;;;5.15;;
25045;SDS011;13044;49.304;12.840;2023-05-10T04:49:52;7.25;;;4.80;;
25045;SDS011;13044;49.304;12.840;2023-05-10T04:52:19;8.90;;;4.35;;
25045;SDS011;13044;49.304;12.840;2023-05-10T04:54:46;7.38;;;4.65;;
25045;SDS011;13044;49.304;12.840;2023-05-10T04:57:13;5.38;;;4.80;;
25045;SDS011;13044;49.304;12.840;2023-05-10T04:59:40;9.25;;;5.47;;
25045;SDS011;13044;49.304;12.840;2023-05-10T05:02:06;6.28;;;4.97;;
25045;SDS011;13044;49.304;12.840;2023-05-10T05:04:34;8.57;;;5.70;;
25045;SDS011;13044;49.304;12.840;2023-05-10T05:07:01;8.40;;;5.60;;
25045;SDS011;13044;49.304;12.840;2023-05-10T05:09:27;7.47;;;5.55;;
25045;SDS011;13044;49.304;12.840;2023-05-10T05:11:54;7.28;;;5.43;;
25045;SDS011;13044;49.304;12.840;2023-05-10T05:14:21;10.20;;;5.85;;
25045;SDS011;13044;49.304;12.840;2023-05-10T05:16:48;9.25;;;6.75;;
25045;SDS011;13044;49.304;12.840;2023-05-10T05:19:15;11.75;;;6.40;;
25045;SDS011;13044;49.304;12.840;2023-05-10T05:21:42;11.38;;;7.53;;
25045;SDS011;13044;49.304;12.840;2023-05-10T05:24:09;9.68;;;6.82;;
25045;SDS011;13044;49.304;12.840;2023-05-10T05:26:38;7.45;;;6.07;;
25045;SDS011;13044;49.304;12.840;2023-05-10T05:29:05;7.50;;;5.97;;
25045;SDS011;13044;49.304;12.840;2023-05-10T05:31:33;7.95;;;5.90;;
25045;SDS011;13044;49.304;12.840;2023-05-10T05:34:00;10.95;;;5.55;;
25045;SDS011;13044;49.304;12.840;2023-05-10T05:36:26;12.98;;;5.80;;
25045;SDS011;13044;49.304;12.840;2023-05-10T05:38:53;6.47;;;5.38;;
25045;SDS011;13044;49.304;12.840;2023-05-10T05:41:20;8.75;;;5.65;;
25045;SDS011;13044;49.304;12.840;2023-05-10T05:43:47;7.50;;;5.50;;
25045;SDS011;13044;49.304;12.840;2023-05-10T05:46:14;7.82;;;6.28;;
25045;SDS011;13044;49.304;12.840;2023-05-10T05:48:41;8.13;;;5.82;;
25045;SDS011;13044;49.304;12.840;2023-05-10T05:51:08;8.68;;;6.10;;
25045;SDS011;13044;49.304;12.840;2023-05-10T05:53:35;7.50;;;6.13;;
25045;SDS011;13044;49.304;12.840;2023-05-10T05:56:02;7.45;;;6.05;;
25045;SDS011;13044;49.304;12.840;2023-05-10T05:58:29;8.13;;;5.40;;
25045;SDS011;13044;49.304;12.840;2023-05-10T06:00:56;8.45;;;5.70;;
25045;SDS011;13044;49.304;12.840;2023-05-10T06:03:23;9.05;;;6.82;;
25045;SDS011;13044;49.304;12.840;2023-05-10T06:05:50;6.63;;;5.75;;
25045;SDS011;13044;49.304;12.840;2023-05-10T06:08:17;14.85;;;6.45;;
25045;SDS011;13044;49.304;12.840;2023-05-10T06:10:44;8.65;;;5.82;;
25045;SDS011;13044;49.304;12.840;2023-05-10T06:13:11;6.65;;;5.65;;
25045;SDS011;13044;49.304;12.840;2023-05-10T06:15:38;8.13;;;6.32;;
25045;SDS011;13044;49.304;12.840;2023-05-10T06:18:05;8.05;;;5.60;;
25045;SDS011;13044;49.304;12.840;2023-05-10T06:20:32;9.30;;;6.22;;
25045;SDS011;13044;49.304;12.840;2023-05-10T06:22:59;7.95;;;6.18;;
25045;SDS011;13044;49.304;12.840;2023-05-10T06:25:26;9.55;;;6.25;;
25045;SDS011;13044;49.304;12.840;2023-05-10T06:27:52;7.45;;;6.00;;
25045;SDS011;13044;49.304;12.840;2023-05-10T06:30:24;7.90;;;6.13;;
25045;SDS011;13044;49.304;12.840;2023-05-10T06:32:54;8.98;;;6.68;;
25045;SDS011;13044;49.304;12.840;2023-05-10T06:35:21;10.77;;;6.38;;
25045;SDS011;13044;49.304;12.840;2023-05-10T06:37:48;11.25;;;6.25;;
25045;SDS011;13044;49.304;12.840;2023-05-10T06:40:16;12.35;;;6.25;;
25045;SDS011;13044;49.304;12.840;2023-05-10T06:42:43;9.57;;;6.05;;
25045;SDS011;13044;49.304;12.840;2023-05-10T06:45:11;9.38;;;5.45;;
25045;SDS011;13044;49.304;12.840;2023-05-10T06:47:38;9.70;;;5.63;;
25045;SDS011;13044;49.304;12.840;2023-05-10T06:50:06;6.72;;;5.35;;
25045;SDS011;13044;49.304;12.840;2023-05-10T06:52:34;6.90;;;4.72;;
25045;SDS011;13044;49.304;12.840;2023-05-10T06:55:03;9.70;;;5.85;;
25045;SDS011;13044;49.304;12.840;2023-05-10T06:57:31;10.40;;;6.13;;
25045;SDS011;13044;49.304;12.840;2023-05-10T06:59:58;9.68;;;6.18;;
25045;SDS011;13044;49.304;12.840;2023-05-10T07:02:26;10.00;;;6.80;;
25045;SDS011;13044;49.304;12.840;2023-05-10T07:04:53;10.73;;;6.65;;
25045;SDS011;13044;49.304;12.840;2023-05-10T07:07:20;14.93;;;7.20;;
25045;SDS011;13044;49.304;12.840;2023-05-10T07:09:47;11.50;;;6.30;;
25045;SDS011;13044;49.304;12.840;2023-05-10T07:12:15;10.55;;;5.93;;
25045;SDS011;13044;49.304;12.840;2023-05-10T07:14:42;11.38;;;6.13;;
25045;SDS011;13044;49.304;12.840;2023-05-10T07:17:09;8.88;;;5.78;;
25045;SDS011;13044;49.304;12.840;2023-05-10T07:19:36;7.88;;;6.25;;
25045;SDS011;13044;49.304;12.840;2023-05-10T07:22:03;8.85;;;6.10;;
25045;SDS011;13044;49.304;12.840;2023-05-10T07:24:30;8.57;;;6.32;;
25045;SDS011;13044;49.304;12.840;2023-05-10T07:26:59;6.93;;;5.65;;
25045;SDS011;13044;49.304;12.840;2023-05-10T07:29:26;7.43;;;5.13;;
25045;SDS011;13044;49.304;12.840;2023-05-10T07:31:53;8.73;;;5.22;;
25045;SDS011;13044;49.304;12.840;2023-05-10T07:34:23;9.02;;;5.90;;
25045;SDS011;13044;49.304;12.840;2023-05-10T07:36:51;7.88;;;6.00;;
25045;SDS011;13044;49.304;12.840;2023-05-10T07:39:18;7.15;;;5.60;;
25045;SDS011;13044;49.304;12.840;2023-05-10T07:41:53;10.30;;;6.28;;
25045;SDS011;13044;49.304;12.840;2023-05-10T07:44:21;7.32;;;5.90;;
25045;SDS011;13044;49.304;12.840;2023-05-10T07:46:48;6.95;;;5.57;;
25045;SDS011;13044;49.304;12.840;2023-05-10T07:49:16;8.07;;;5.78;;
25045;SDS011;13044;49.304;12.840;2023-05-10T07:51:43;10.13;;;6.40;;
25045;SDS011;13044;49.304;12.840;2023-05-10T07:54:09;9.02;;;6.05;;
25045;SDS011;13044;49.304;12.840;2023-05-10T07:56:36;7.13;;;5.68;;
25045;SDS011;13044;49.304;12.840;2023-05-10T07:59:03;8.57;;;5.50;;
25045;SDS011;13044;49.304;12.840;2023-05-10T08:01:33;7.30;;;6.00;;
25045;SDS011;13044;49.304;12.840;2023-05-10T08:04:00;8.40;;;6.20;;
25045;SDS011;13044;49.304;12.840;2023-05-10T08:06:28;7.20;;;6.18;;
25045;SDS011;13044;49.304;12.840;2023-05-10T08:08:56;8.90;;;6.18;;
25045;SDS011;13044;49.304;12.840;2023-05-10T08:11:23;8.20;;;5.85;;
25045;SDS011;13044;49.304;12.840;2023-05-10T08:13:50;9.00;;;6.22;;
25045;SDS011;13044;49.304;12.840;2023-05-10T08:16:19;9.95;;;7.05;;
25045;SDS011;13044;49.304;12.840;2023-05-10T08:18:46;11.95;;;6.95;;
25045;SDS011;13044;49.304;12.840;2023-05-10T08:21:14;7.63;;;5.60;;
25045;SDS011;13044;49.304;12.840;2023-05-10T08:23:41;9.85;;;7.28;;
25045;SDS011;13044;49.304;12.840;2023-05-10T08:26:10;10.90;;;7.07;;
25045;SDS011;13044;49.304;12.840;2023-05-10T08:28:37;10.88;;;7.00;;
25045;SDS011;13044;49.304;12.840;2023-05-10T08:31:04;7.05;;;6.00;;
25045;SDS011;13044;49.304;12.840;2023-05-10T08:33:31;10.40;;;6.60;;
25045;SDS011;13044;49.304;12.840;2023-05-10T08:35:58;8.73;;;6.85;;
25045;SDS011;13044;49.304;12.840;2023-05-10T08:38:25;8.98;;;6.70;;
25045;SDS011;13044;49.304;12.840;2023-05-10T08:40:53;9.18;;;6.63;;
25045;SDS011;13044;49.304;12.840;2023-05-10T08:43:28;10.55;;;6.45;;
25045;SDS011;13044;49.304;12.840;2023-05-10T08:45:56;11.38;;;7.00;;
25045;SDS011;13044;49.304;12.840;2023-05-10T08:48:26;10.05;;;7.45;;
25045;SDS011;13044;49.304;12.840;2023-05-10T08:50:57;8.80;;;7.03;;
25045;SDS011;13044;49.304;12.840;2023-05-10T08:53:26;13.60;;;6.85;;
25045;SDS011;13044;49.304;12.840;2023-05-10T08:55:55;14.00;;;7.78;;
25045;SDS011;13044;49.304;12.840;2023-05-10T08:58:23;8.15;;;7.13;;
25045;SDS011;13044;49.304;12.840;2023-05-10T09:00:51;9.70;;;6.43;;
25045;SDS011;13044;49.304;12.840;2023-05-10T09:03:19;8.63;;;7.03;;
25045;SDS011;13044;49.304;12.840;2023-05-10T09:05:46;7.63;;;5.95;;
25045;SDS011;13044;49.304;12.840;2023-05-10T09:08:14;7.95;;;6.65;;
25045;SDS011;13044;49.304;12.840;2023-05-10T09:10:45;10.43;;;6.93;;
25045;SDS011;13044;49.304;12.840;2023-05-10T09:13:15;9.02;;;6.68;;
25045;SDS011;13044;49.304;12.840;2023-05-10T09:15:45;7.57;;;6.38;;
25045;SDS011;13044;49.304;12.840;2023-05-10T09:18:12;7.53;;;6.72;;
25045;SDS011;13044;49.304;12.840;2023-05-10T09:20:39;10.40;;;7.30;;
25045;SDS011;13044;49.304;12.840;2023-05-10T09:23:06;7.80;;;6.70;;
25045;SDS011;13044;49.304;12.840;2023-05-10T09:25:33;8.98;;;7.18;;
25045;SDS011;13044;49.304;12.840;2023-05-10T09:28:01;8.75;;;7.10;;
25045;SDS011;13044;49.304;12.840;2023-05-10T09:30:29;9.32;;;6.63;;
25045;SDS011;13044;49.304;12.840;2023-05-10T09:32:57;8.85;;;6.80;;
25045;SDS011;13044;49.304;12.840;2023-05-10T09:35:26;9.18;;;6.88;;
25045;SDS011;13044;49.304;12.840;2023-05-10T09:37:56;7.97;;;7.18;;
25045;SDS011;13044;49.304;12.840;2023-05-10T09:40:27;9.38;;;8.05;;
25045;SDS011;13044;49.304;12.840;2023-05-10T09:45:28;11.35;;;8.65;;
25045;SDS011;13044;49.304;12.840;2023-05-10T09:47:58;10.30;;;7.65;;
25045;SDS011;13044;49.304;12.840;2023-05-10T09:50:27;9.10;;;7.43;;
25045;SDS011;13044;49.304;12.840;2023-05-10T09:52:58;7.47;;;6.63;;
25045;SDS011;13044;49.304;12.840;2023-05-10T09:56:00;9.70;;;8.00;;
25045;SDS011;13044;49.304;12.840;2023-05-10T09:58:20;11.30;;;7.45;;
25045;SDS011;13044;49.304;12.840;2023-05-10T10:00:47;8.75;;;7.60;;
25045;SDS011;13044;49.304;12.840;2023-05-10T10:03:18;13.93;;;7.55;;
25045;SDS011;13044;49.304;12.840;2023-05-10T10:05:47;8.20;;;7.38;;
25045;SDS011;13044;49.304;12.840;2023-05-10T10:08:15;7.57;;;6.78;;
25045;SDS011;13044;49.304;12.840;2023-05-10T10:10:43;10.32;;;7.50;;
25045;SDS011;13044;49.304;12.840;2023-05-10T10:13:12;9.27;;;7.22;;
25045;SDS011;13044;49.304;12.840;2023-05-10T10:15:40;8.10;;;6.82;;
25045;SDS011;13044;49.304;12.840;2023-05-10T10:18:13;11.60;;;7.82;;
25045;SDS011;13044;49.304;12.840;2023-05-10T10:20:43;8.57;;;7.68;;
25045;SDS011;13044;49.304;12.840;2023-05-10T10:23:10;8.43;;;7.05;;
25045;SDS011;13044;49.304;12.840;2023-05-10T10:25:38;8.07;;;7.28;;
25045;SDS011;13044;49.304;12.840;2023-05-10T10:28:11;7.47;;;6.18;;
25045;SDS011;13044;49.304;12.840;2023-05-10T10:31:36;7.80;;;6.85;;
25045;SDS011;13044;49.304;12.840;2023-05-10T10:34:27;7.57;;;6.22;;
25045;SDS011;13044;49.304;12.840;2023-05-10T10:36:56;7.40;;;6.03;;
25045;SDS011;13044;49.304;12.840;2023-05-10T10:39:24;7.63;;;6.82;;
25045;SDS011;13044;49.304;12.840;2023-05-10T10:41:52;7.53;;;6.50;;
25045;SDS011;13044;49.304;12.840;2023-05-10T10:49:32;6.25;;;5.65;;
25045;SDS011;13044;49.304;12.840;2023-05-10T10:52:27;5.18;;;4.50;;
25045;SDS011;13044;49.304;12.840;2023-05-10T10:55:03;5.65;;;5.13;;
25045;SDS011;13044;49.304;12.840;2023-05-10T10:57:51;5.15;;;4.65;;
25045;SDS011;13044;49.304;12.840;2023-05-10T11:03:09;5.50;;;5.00;;
25045;SDS011;13044;49.304;12.840;2023-05-10T11:08:12;5.43;;;4.93;;
25045;SDS011;13044;49.304;12.840;2023-05-10T11:11:04;4.82;;;4.43;;
25045;SDS011;13044;49.304;12.840;2023-05-10T11:19:11;5.53;;;4.45;;
25045;SDS011;13044;49.304;12.840;2023-05-10T11:21:46;5.80;;;4.63;;
25045;SDS011;13044;49.304;12.840;2023-05-10T11:24:31;4.95;;;4.45;;
25045;SDS011;13044;49.304;12.840;2023-05-10T11:26:59;5.18;;;4.32;;
25045;SDS011;13044;49.304;12.840;2023-05-10T11:29:27;4.70;;;4.20;;
25045;SDS011;13044;49.304;12.840;2023-05-10T11:31:56;5.03;;;4.53;;
25045;SDS011;13044;49.304;12.840;2023-05-10T11:34:25;4.35;;;3.95;;
25045;SDS011;13044;49.304;12.840;2023-05-10T11:36:57;4.60;;;4.20;;
25045;SDS011;13044;49.304;12.840;2023-05-10T11:39:28;5.10;;;4.57;;
25045;SDS011;13044;49.304;12.840;2023-05-10T11:41:56;5.40;;;4.90;;
25045;SDS011;13044;49.304;12.840;2023-05-10T11:44:28;4.85;;;4.10;;
25045;SDS011;13044;49.304;12.840;2023-05-10T11:47:00;4.82;;;4.43;;
25045;SDS011;13044;49.304;12.840;2023-05-10T11:49:28;5.05;;;4.55;;
25045;SDS011;13044;49.304;12.840;2023-05-10T11:52:05;5.75;;;5.25;;
25045;SDS011;13044;49.304;12.840;2023-05-10T11:54:33;6.38;;;5.57;;
25045;SDS011;13044;49.304;12.840;2023-05-10T11:57:01;6.10;;;5.50;;
25045;SDS011;13044;49.304;12.840;2023-05-10T11:59:28;5.43;;;4.93;;
25045;SDS011;13044;49.304;12.840;2023-05-10T12:01:55;5.72;;;5.22;;
25045;SDS011;13044;49.304;12.840;2023-05-10T12:04:22;7.38;;;6.18;;
25045;SDS011;13044;49.304;12.840;2023-05-10T12:06:49;12.60;;;7.43;;
25045;SDS011;13044;49.304;12.840;2023-05-10T12:09:16;9.10;;;6.32;;
25045;SDS011;13044;49.304;12.840;2023-05-10T12:11:56;7.90;;;5.47;;
25045;SDS011;13044;49.304;12.840;2023-05-10T12:14:23;6.10;;;5.35;;
25045;SDS011;13044;49.304;12.840;2023-05-10T12:16:50;5.60;;;5.10;;
25045;SDS011;13044;49.304;12.840;2023-05-10T12:19:20;6.60;;;4.93;;
25045;SDS011;13044;49.304;12.840;2023-05-10T12:21:47;8.30;;;5.28;;
25045;SDS011;13044;49.304;12.840;2023-05-10T12:24:14;7.18;;;5.72;;
25045;SDS011;13044;49.304;12.840;2023-05-10T12:26:45;5.28;;;4.78;;
25045;SDS011;13044;49.304;12.840;2023-05-10T12:29:12;7.35;;;4.68;;
25045;SDS011;13044;49.304;12.840;2023-05-10T12:31:51;4.73;;;4.33;;
25045;SDS011;13044;49.304;12.840;2023-05-10T12:34:26;6.75;;;4.75;;
25045;SDS011;13044;49.304;12.840;2023-05-10T12:36:56;8.52;;;4.70;;
25045;SDS011;13044;49.304;12.840;2023-05-10T12:39:24;6.22;;;4.75;;
25045;SDS011;13044;49.304;12.840;2023-05-10T12:41:52;5.22;;;4.72;;
25045;SDS011;13044;49.304;12.840;2023-05-10T12:44:19;4.90;;;4.30;;
25045;SDS011;13044;49.304;12.840;2023-05-10T12:46:46;7.13;;;4.70;;
25045;SDS011;13044;49.304;12.840;2023-05-10T12:49:12;4.68;;;4.28;;
25045;SDS011;13044;49.304;12.840;2023-05-10T12:51:39;4.88;;;4.47;;
25045;SDS011;13044;49.304;12.840;2023-05-10T12:54:06;4.72;;;4.20;;
25045;SDS011;13044;49.304;12.840;2023-05-10T12:56:33;5.90;;;4.00;;
25045;SDS011;13044;49.304;12.840;2023-05-10T12:59:00;6.47;;;4.75;;
25045;SDS011;13044;49.304;12.840;2023-05-10T13:01:26;5.38;;;4.65;;
25045;SDS011;13044;49.304;12.840;2023-05-10T13:03:54;5.35;;;4.60;;
25045;SDS011;13044;49.304;12.840;2023-05-10T13:06:21;5.63;;;3.95;;
25045;SDS011;13044;49.304;12.840;2023-05-10T13:08:48;8.98;;;4.20;;
25045;SDS011;13044;49.304;12.840;2023-05-10T13:11:15;7.13;;;4.57;;
25045;SDS011;13044;49.304;12.840;2023-05-10T13:13:43;5.80;;;4.47;;
25045;SDS011;13044;49.304;12.840;2023-05-10T13:16:10;4.90;;;4.40;;
25045;SDS011;13044;49.304;12.840;2023-05-10T13:18:37;3.95;;;3.58;;
25045;SDS011;13044;49.304;12.840;2023-05-10T13:21:04;6.53;;;4.75;;
25045;SDS011;13044;49.304;12.840;2023-05-10T13:23:31;6.65;;;4.78;;
25045;SDS011;13044;49.304;12.840;2023-05-10T13:25:58;8.95;;;5.97;;
25045;SDS011;13044;49.304;12.840;2023-05-10T13:28:25;6.18;;;5.43;;
25045;SDS011;13044;49.304;12.840;2023-05-10T13:30:52;9.10;;;6.25;;
25045;SDS011;13044;49.304;12.840;2023-05-10T13:33:19;7.35;;;4.97;;
25045;SDS011;13044;49.304;12.840;2023-05-10T13:35:46;5.75;;;4.78;;
25045;SDS011;13044;49.304;12.840;2023-05-10T13:38:13;6.18;;;5.57;;
25045;SDS011;13044;49.304;12.840;2023-05-10T13:40:40;6.00;;;5.40;;
25045;SDS011;13044;49.304;12.840;2023-05-10T13:43:06;6.22;;;5.30;;
25045;SDS011;13044;49.304;12.840;2023-05-10T13:45:33;4.90;;;4.40;;
25045;SDS011;13044;49.304;12.840;2023-05-10T13:48:00;6.00;;;4.40;;
25045;SDS011;13044;49.304;12.840;2023-05-10T13:50:27;5.68;;;5.07;;
25045;SDS011;13044;49.304;12.840;2023-05-10T13:52:54;5.75;;;5.03;;
25045;SDS011;13044;49.304;12.840;2023-05-10T13:55:21;6.55;;;5.10;;
25045;SDS011;13044;49.304;12.840;2023-05-10T13:57:48;4.40;;;4.00;;
25045;SDS011;13044;49.304;12.840;2023-05-10T14:00:15;5.47;;;4.22;;
25045;SDS011;13044;49.304;12.840;2023-05-10T14:02:42;4.97;;;4.40;;
25045;SDS011;13044;49.304;12.840;2023-05-10T14:05:10;4.55;;;4.15;;
25045;SDS011;13044;49.304;12.840;2023-05-10T14:07:37;6.75;;;4.70;;
25045;SDS011;13044;49.304;12.840;2023-05-10T14:10:04;5.10;;;4.60;;
25045;SDS011;13044;49.304;12.840;2023-05-10T14:12:32;7.13;;;4.90;;
25045;SDS011;13044;49.304;12.840;2023-05-10T14:14:59;5.05;;;4.55;;
25045;SDS011;13044;49.304;12.840;2023-05-10T14:17:26;8.43;;;4.60;;
25045;SDS011;13044;49.304;12.840;2023-05-10T14:19:53;4.82;;;4.32;;
25045;SDS011;13044;49.304;12.840;2023-05-10T14:22:20;4.32;;;3.92;;
25045;SDS011;13044;49.304;12.840;2023-05-10T14:24:47;6.68;;;5.07;;
25045;SDS011;13044;49.304;12.840;2023-05-10T14:27:14;5.00;;;4.40;;
25045;SDS011;13044;49.304;12.840;2023-05-10T14:29:41;10.00;;;5.07;;
25045;SDS011;13044;49.304;12.840;2023-05-10T14:32:08;7.28;;;4.38;;
25045;SDS011;13044;49.304;12.840;2023-05-10T14:34:36;5.57;;;4.47;;
25045;SDS011;13044;49.304;12.840;2023-05-10T14:37:02;5.03;;;4.07;;
25045;SDS011;13044;49.304;12.840;2023-05-10T14:39:30;9.00;;;5.97;;
25045;SDS011;13044;49.304;12.840;2023-05-10T14:41:57;5.53;;;4.63;;
25045;SDS011;13044;49.304;12.840;2023-05-10T14:44:24;4.75;;;4.32;;
25045;SDS011;13044;49.304;12.840;2023-05-10T14:46:51;6.75;;;5.05;;
25045;SDS011;13044;49.304;12.840;2023-05-10T14:49:18;6.10;;;4.53;;
25045;SDS011;13044;49.304;12.840;2023-05-10T14:51:45;4.28;;;3.80;;
25045;SDS011;13044;49.304;12.840;2023-05-10T14:54:11;4.72;;;4.30;;
25045;SDS011;13044;49.304;12.840;2023-05-10T14:56:38;5.35;;;4.75;;
25045;SDS011;13044;49.304;12.840;2023-05-10T14:59:07;3.65;;;3.35;;
25045;SDS011;13044;49.304;12.840;2023-05-10T15:01:35;4.57;;;3.30;;
25045;SDS011;13044;49.304;12.840;2023-05-10T15:04:04;4.35;;;3.95;;
25045;SDS011;13044;49.304;12.840;2023-05-10T15:06:31;5.22;;;4.38;;
25045;SDS011;13044;49.304;12.840;2023-05-10T15:09:01;5.43;;;4.63;;
25045;SDS011;13044;49.304;12.840;2023-05-10T15:11:29;4.95;;;4.22;;